createdAt,value
2023-04-25T00:00:13.547Z,659.00
2023-04-25T00:01:13.606Z,660.00
2023-04-25T00:02:13.735Z,659.00
2023-04-25T00:03:13.671Z,655.00
2023-04-25T00:04:13.803Z,657.00
2023-04-25T00:05:13.789Z,657.00
2023-04-25T00:06:14.125Z,659.00
2023-04-25T00:07:13.748Z,656.00
2023-04-25T00:08:13.775Z,655.00
2023-04-25T00:09:13.805Z,659.00
2023-04-25T00:10:13.866Z,653.00
2023-04-25T00:11:13.928Z,658.00
2023-04-25T00:12:13.940Z,653.00
2023-04-25T00:13:13.913Z,655.00
2023-04-25T00:14:13.960Z,659.00
2023-04-25T00:15:13.998Z,659.00
2023-04-25T00:16:14.204Z,655.00
2023-04-25T00:17:14.080Z,659.00
2023-04-25T00:18:14.086Z,659.00
2023-04-25T00:19:14.136Z,652.00
2023-04-25T00:20:14.211Z,656.00
2023-04-25T00:21:14.667Z,649.00
2023-04-25T00:22:14.270Z,649.00
2023-04-25T00:23:14.269Z,652.00
2023-04-25T00:24:14.265Z,649.00
2023-04-25T00:25:14.346Z,652.00
2023-04-25T00:26:14.653Z,652.00
2023-04-25T00:27:14.401Z,650.00
2023-04-25T00:28:14.385Z,650.00
2023-04-25T00:29:14.464Z,649.00
2023-04-25T00:30:14.505Z,649.00
2023-04-25T00:31:14.718Z,650.00
2023-04-25T00:32:14.592Z,645.00
2023-04-25T00:33:14.653Z,651.00
2023-04-25T00:34:14.594Z,648.00
2023-04-25T00:35:14.676Z,648.00
2023-04-25T00:36:15.163Z,649.00
2023-04-25T00:37:14.725Z,649.00
2023-04-25T00:38:14.784Z,648.00
2023-04-25T00:39:14.805Z,648.00
2023-04-25T00:40:14.852Z,646.00
2023-04-25T00:41:15.165Z,643.00
2023-04-25T00:42:14.920Z,646.00
2023-04-25T00:43:14.989Z,646.00
2023-04-25T00:44:14.981Z,644.00
2023-04-25T00:45:14.982Z,645.00
2023-04-25T00:46:15.224Z,647.00
2023-04-25T00:47:15.067Z,640.00
2023-04-25T00:48:15.099Z,644.00
2023-04-25T00:49:15.112Z,638.00
2023-04-25T00:50:15.167Z,644.00
2023-04-25T00:51:15.679Z,644.00
2023-04-25T00:52:15.244Z,648.00
2023-04-25T00:53:15.245Z,642.00
2023-04-25T00:54:15.295Z,642.00
2023-04-25T00:55:15.304Z,644.00
2023-04-25T00:56:15.681Z,641.00
2023-04-25T00:57:15.433Z,644.00
2023-04-25T00:58:15.401Z,640.00
2023-04-25T00:59:15.502Z,642.00
2023-04-25T01:00:15.502Z,640.00
2023-04-25T01:01:15.608Z,643.00
2023-04-25T01:02:15.618Z,641.00
2023-04-25T01:03:15.714Z,638.00
2023-04-25T01:04:15.877Z,639.00
2023-04-25T01:05:15.666Z,640.00
2023-04-25T01:06:16.155Z,639.00
2023-04-25T01:07:15.709Z,635.00
2023-04-25T01:08:15.771Z,635.00
2023-04-25T01:09:15.802Z,640.00
2023-04-25T01:10:15.857Z,638.00
2023-04-25T01:11:16.191Z,636.00
2023-04-25T01:12:15.920Z,631.00
2023-04-25T01:13:15.970Z,632.00
2023-04-25T01:14:16.006Z,632.00
2023-04-25T01:15:16.057Z,634.00
2023-04-25T01:16:16.172Z,637.00
2023-04-25T01:17:16.077Z,636.00
2023-04-25T01:18:16.162Z,636.00
2023-04-25T01:19:16.180Z,636.00
2023-04-25T01:20:16.268Z,632.00
2023-04-25T01:21:16.691Z,633.00
2023-04-25T01:22:16.299Z,633.00
2023-04-25T01:23:16.359Z,632.00
2023-04-25T01:24:16.386Z,631.00
2023-04-25T01:25:16.427Z,635.00
2023-04-25T01:26:16.705Z,634.00
2023-04-25T01:27:16.520Z,630.00
2023-04-25T01:28:16.542Z,627.00
2023-04-25T01:29:16.621Z,627.00
2023-04-25T01:30:16.610Z,628.00
2023-04-25T01:31:16.722Z,629.00
2023-04-25T01:32:16.738Z,632.00
2023-04-25T01:33:16.767Z,629.00
2023-04-25T01:34:16.803Z,631.00
2023-04-25T01:35:16.853Z,633.00
2023-04-25T01:36:17.190Z,626.00
2023-04-25T01:37:16.932Z,631.00
2023-04-25T01:38:17.001Z,631.00
2023-04-25T01:39:17.007Z,630.00
2023-04-25T01:40:17.246Z,630.00
2023-04-25T01:41:17.224Z,626.00
2023-04-25T01:42:17.171Z,625.00
2023-04-25T01:43:17.163Z,626.00
2023-04-25T01:44:17.221Z,624.00
2023-04-25T01:45:17.275Z,625.00
2023-04-25T01:46:17.761Z,624.00
2023-04-25T01:47:17.386Z,624.00
2023-04-25T01:48:17.417Z,623.00
2023-04-25T01:49:17.425Z,622.00
2023-04-25T01:50:17.465Z,621.00
2023-04-25T01:51:17.705Z,625.00
2023-04-25T01:52:17.585Z,624.00
2023-04-25T01:53:17.622Z,617.00
2023-04-25T01:54:17.653Z,620.00
2023-04-25T01:55:17.701Z,625.00
2023-04-25T01:56:18.176Z,625.00
2023-04-25T01:57:17.775Z,620.00
2023-04-25T01:58:17.812Z,617.00
2023-04-25T01:59:17.892Z,620.00
2023-04-25T02:00:17.947Z,619.00
2023-04-25T02:01:18.230Z,618.00
2023-04-25T02:02:18.102Z,623.00
2023-04-25T02:03:18.153Z,620.00
2023-04-25T02:04:18.311Z,621.00
2023-04-25T02:05:18.109Z,623.00
2023-04-25T02:06:18.178Z,619.00
2023-04-25T02:07:18.183Z,618.00
2023-04-25T02:08:18.241Z,619.00
2023-04-25T02:09:18.261Z,620.00
2023-04-25T02:10:18.323Z,617.00
2023-04-25T02:11:18.714Z,615.00
2023-04-25T02:12:18.436Z,618.00
2023-04-25T02:13:18.429Z,619.00
2023-04-25T02:14:18.524Z,620.00
2023-04-25T02:15:18.554Z,619.00
2023-04-25T02:16:18.775Z,615.00
2023-04-25T02:17:18.675Z,618.00
2023-04-25T02:18:18.726Z,614.00
2023-04-25T02:19:18.752Z,616.00
2023-04-25T02:20:18.766Z,608.00
2023-04-25T02:21:19.211Z,612.00
2023-04-25T02:22:18.880Z,613.00
2023-04-25T02:23:18.931Z,614.00
2023-04-25T02:24:18.987Z,614.00
2023-04-25T02:25:19.034Z,607.00
2023-04-25T02:26:19.209Z,606.00
2023-04-25T02:27:19.111Z,617.00
2023-04-25T02:28:19.223Z,616.00
2023-04-25T02:29:19.236Z,613.00
2023-04-25T02:30:19.265Z,611.00
2023-04-25T02:31:19.732Z,610.00
2023-04-25T02:32:19.423Z,613.00
2023-04-25T02:33:19.437Z,610.00
2023-04-25T02:34:19.502Z,609.00
2023-04-25T02:35:19.567Z,609.00
2023-04-25T02:36:19.689Z,611.00
2023-04-25T02:37:19.637Z,609.00
2023-04-25T02:38:19.702Z,610.00
2023-04-25T02:39:19.764Z,610.00
2023-04-25T02:40:19.813Z,613.00
2023-04-25T02:41:20.237Z,610.00
2023-04-25T02:42:19.927Z,613.00
2023-04-25T02:43:19.983Z,608.00
2023-04-25T02:44:20.031Z,609.00
2023-04-25T02:45:20.058Z,609.00
2023-04-25T02:46:32.041Z,609.00
2023-04-25T02:47:21.257Z,609.00
2023-04-25T02:48:20.119Z,609.00
2023-04-25T02:49:20.116Z,607.00
2023-04-25T02:50:20.132Z,612.00
2023-04-25T02:51:20.226Z,612.00
2023-04-25T02:52:20.080Z,610.00
2023-04-25T02:53:20.107Z,608.00
2023-04-25T02:54:20.092Z,606.00
2023-04-25T02:55:20.096Z,607.00
2023-04-25T02:56:20.224Z,605.00
2023-04-25T02:57:20.140Z,606.00
2023-04-25T02:58:20.215Z,604.00
2023-04-25T02:59:20.271Z,607.00
2023-04-25T03:00:20.382Z,604.00
2023-04-25T03:01:20.795Z,609.00
2023-04-25T03:02:20.500Z,603.00
2023-04-25T03:03:20.669Z,602.00
2023-04-25T03:04:20.580Z,606.00
2023-04-25T03:05:20.604Z,608.00
2023-04-25T03:06:20.650Z,606.00
2023-04-25T03:07:20.698Z,603.00
2023-04-25T03:08:20.741Z,606.00
2023-04-25T03:09:20.819Z,607.00
2023-04-25T03:10:20.876Z,600.00
2023-04-25T03:11:20.941Z,604.00
2023-04-25T03:12:21.320Z,604.00
2023-04-25T03:13:21.040Z,600.00
2023-04-25T03:14:21.078Z,601.00
2023-04-25T03:15:21.124Z,606.00
2023-04-25T03:16:21.215Z,602.00
2023-04-25T03:17:21.240Z,602.00
2023-04-25T03:18:21.300Z,598.00
2023-04-25T03:19:21.349Z,601.00
2023-04-25T03:20:21.418Z,591.00
2023-04-25T03:21:21.464Z,595.00
2023-04-25T03:22:21.502Z,601.00
2023-04-25T03:23:21.600Z,598.00
2023-04-25T03:24:21.660Z,596.00
2023-04-25T03:25:21.689Z,596.00
2023-04-25T03:26:22.726Z,593.00
2023-04-25T03:27:21.808Z,598.00
2023-04-25T03:28:21.844Z,595.00
2023-04-25T03:29:21.890Z,599.00
2023-04-25T03:30:22.000Z,598.00
2023-04-25T03:31:22.082Z,598.00
2023-04-25T03:32:22.363Z,598.00
2023-04-25T03:33:22.115Z,592.00
2023-04-25T03:34:22.203Z,596.00
2023-04-25T03:35:22.271Z,595.00
2023-04-25T03:36:22.357Z,593.00
2023-04-25T03:37:22.393Z,598.00
2023-04-25T03:38:22.423Z,592.00
2023-04-25T03:39:22.500Z,596.00
2023-04-25T03:40:22.535Z,594.00
2023-04-25T03:41:22.618Z,595.00
2023-04-25T03:42:22.662Z,594.00
2023-04-25T03:43:23.202Z,595.00
2023-04-25T03:44:22.765Z,596.00
2023-04-25T03:45:22.832Z,591.00
2023-04-25T03:46:22.906Z,597.00
2023-04-25T03:47:22.972Z,593.00
2023-04-25T03:48:22.948Z,588.00
2023-04-25T03:49:23.055Z,588.00
2023-04-25T03:50:23.081Z,587.00
2023-04-25T03:51:23.126Z,591.00
2023-04-25T03:52:23.225Z,593.00
2023-04-25T03:53:23.227Z,590.00
2023-04-25T03:54:23.243Z,587.00
2023-04-25T03:55:23.345Z,593.00
2023-04-25T03:56:23.338Z,586.00
2023-04-25T03:57:23.714Z,590.00
2023-04-25T03:58:23.445Z,585.00
2023-04-25T03:59:23.504Z,589.00
2023-04-25T04:00:23.579Z,587.00
2023-04-25T04:01:23.596Z,585.00
2023-04-25T04:02:23.904Z,590.00
2023-04-25T04:03:24.047Z,588.00
2023-04-25T04:04:24.076Z,586.00
2023-04-25T04:05:23.973Z,581.00
2023-04-25T04:06:23.880Z,593.00
2023-04-25T04:07:24.230Z,585.00
2023-04-25T04:08:23.964Z,585.00
2023-04-25T04:09:24.031Z,585.00
2023-04-25T04:10:24.069Z,580.00
2023-04-25T04:11:24.129Z,584.00
2023-04-25T04:12:24.240Z,588.00
2023-04-25T04:13:24.263Z,585.00
2023-04-25T04:14:24.285Z,585.00
2023-04-25T04:15:24.377Z,586.00
2023-04-25T04:16:24.543Z,586.00
2023-04-25T04:17:24.505Z,586.00
2023-04-25T04:18:24.554Z,587.00
2023-04-25T04:19:24.585Z,588.00
2023-04-25T04:20:24.651Z,584.00
2023-04-25T04:21:24.754Z,583.00
2023-04-25T04:22:25.267Z,579.00
2023-04-25T04:23:24.865Z,581.00
2023-04-25T04:24:24.949Z,580.00
2023-04-25T04:25:24.986Z,585.00
2023-04-25T04:26:25.034Z,580.00
2023-04-25T04:27:25.294Z,585.00
2023-04-25T04:28:25.120Z,578.00
2023-04-25T04:29:25.168Z,583.00
2023-04-25T04:30:25.301Z,583.00
2023-04-25T04:31:25.375Z,584.00
2023-04-25T04:32:25.835Z,581.00
2023-04-25T04:33:25.476Z,586.00
2023-04-25T04:34:25.444Z,580.00
2023-04-25T04:35:25.552Z,579.00
2023-04-25T04:36:25.567Z,578.00
2023-04-25T04:37:25.737Z,579.00
2023-04-25T04:38:25.686Z,580.00
2023-04-25T04:39:25.785Z,578.00
2023-04-25T04:40:25.802Z,578.00
2023-04-25T04:41:25.832Z,585.00
2023-04-25T04:42:25.929Z,587.00
2023-04-25T04:43:25.985Z,574.00
2023-04-25T04:44:26.029Z,575.00
2023-04-25T04:45:26.089Z,580.00
2023-04-25T04:46:26.143Z,578.00
2023-04-25T04:47:26.288Z,576.00
2023-04-25T04:48:26.245Z,575.00
2023-04-25T04:49:26.297Z,577.00
2023-04-25T04:50:26.364Z,580.00
2023-04-25T04:51:26.366Z,580.00
2023-04-25T04:52:27.280Z,577.00
2023-04-25T04:53:26.499Z,572.00
2023-04-25T04:54:26.624Z,527.00
2023-04-25T04:55:26.640Z,500.00
2023-04-25T04:56:26.702Z,507.00
2023-04-25T04:57:27.262Z,500.00
2023-04-25T04:58:26.821Z,505.00
2023-04-25T04:59:26.937Z,519.00
2023-04-25T05:00:29.166Z,505.00
2023-04-25T05:01:27.109Z,505.00
2023-04-25T05:02:27.357Z,503.00
2023-04-25T05:03:26.940Z,500.00
2023-04-25T05:04:26.979Z,507.00
2023-04-25T05:05:26.910Z,507.00
2023-04-25T05:06:26.902Z,500.00
2023-04-25T05:07:27.246Z,504.00
2023-04-25T05:08:26.888Z,506.00
2023-04-25T05:09:26.904Z,500.00
2023-04-25T05:10:26.836Z,507.00
2023-04-25T05:11:26.835Z,527.00
2023-04-25T05:12:27.289Z,500.00
2023-04-25T05:13:26.844Z,504.00
2023-04-25T05:14:26.848Z,511.00
2023-04-25T05:15:26.818Z,503.00
2023-04-25T05:16:26.884Z,502.00
2023-04-25T05:17:27.317Z,501.00
2023-04-25T05:18:26.870Z,505.00
2023-04-25T05:19:26.819Z,501.00
2023-04-25T05:20:26.790Z,500.00
2023-04-25T05:21:26.803Z,504.00
2023-04-25T05:22:27.264Z,507.00
2023-04-25T05:23:26.753Z,506.00
2023-04-25T05:24:26.782Z,503.00
2023-04-25T05:25:26.740Z,522.00
2023-04-25T05:26:26.760Z,503.00
2023-04-25T05:27:26.773Z,506.00
2023-04-25T05:28:26.727Z,503.00
2023-04-25T05:29:26.741Z,509.00
2023-04-25T05:30:26.704Z,517.00
2023-04-25T05:31:26.827Z,521.00
2023-04-25T05:32:26.967Z,510.00
2023-04-25T05:33:26.735Z,513.00
2023-04-25T05:34:26.694Z,500.00
2023-04-25T05:35:26.750Z,562.00
2023-04-25T05:36:26.715Z,598.00
2023-04-25T05:37:26.765Z,585.00
2023-04-25T05:38:26.634Z,573.00
2023-04-25T05:39:26.714Z,539.00
2023-04-25T05:40:26.709Z,527.00
2023-04-25T05:41:26.633Z,554.00
2023-04-25T05:42:26.786Z,533.00
2023-04-25T05:43:26.760Z,518.00
2023-04-25T05:44:28.596Z,530.00
2023-04-25T05:45:26.637Z,520.00
2023-04-25T05:46:26.693Z,519.00
2023-04-25T05:47:26.831Z,539.00
2023-04-25T05:48:26.584Z,562.00
2023-04-25T05:49:26.590Z,566.00
2023-04-25T05:50:26.614Z,565.00
2023-04-25T05:51:26.607Z,544.00
2023-04-25T05:52:26.586Z,541.00
2023-04-25T05:53:26.606Z,551.00
2023-04-25T05:54:26.559Z,536.00
2023-04-25T05:55:26.560Z,547.00
2023-04-25T05:56:26.570Z,540.00
2023-04-25T05:57:26.826Z,514.00
2023-04-25T05:58:26.558Z,524.00
2023-04-25T05:59:26.536Z,517.00
2023-04-25T06:00:26.527Z,530.00
2023-04-25T06:01:26.497Z,529.00
2023-04-25T06:02:26.921Z,531.00
2023-04-25T06:03:26.647Z,520.00
2023-04-25T06:04:26.791Z,507.00
2023-04-25T06:05:26.518Z,510.00
2023-04-25T06:06:27.264Z,516.00
2023-04-25T06:07:26.524Z,501.00
2023-04-25T06:08:26.561Z,500.00
2023-04-25T06:09:26.558Z,509.00
2023-04-25T06:10:26.617Z,505.00
2023-04-25T06:11:26.624Z,526.00
2023-04-25T06:12:26.744Z,535.00
2023-04-25T06:13:26.722Z,547.00
2023-04-25T06:14:29.441Z,524.00
2023-04-25T06:15:28.927Z,508.00
2023-04-25T06:16:26.933Z,508.00
2023-04-25T06:17:27.297Z,509.00
2023-04-25T06:18:26.894Z,511.00
2023-04-25T06:19:26.915Z,534.00
2023-04-25T06:20:26.999Z,539.00
2023-04-25T06:21:27.022Z,534.00
2023-04-25T06:22:27.281Z,573.00
2023-04-25T06:23:27.056Z,568.00
2023-04-25T06:24:27.049Z,557.00
2023-04-25T06:25:27.125Z,526.00
2023-04-25T06:26:27.084Z,520.00
2023-04-25T06:27:27.123Z,517.00
2023-04-25T06:28:27.134Z,508.00
2023-04-25T06:29:27.136Z,522.00
2023-04-25T06:30:27.109Z,525.00
2023-04-25T06:31:27.133Z,515.00
2023-04-25T06:32:28.785Z,513.00
2023-04-25T06:33:27.101Z,517.00
2023-04-25T06:34:27.100Z,515.00
2023-04-25T06:35:27.127Z,510.00
2023-04-25T06:36:27.129Z,523.00
2023-04-25T06:37:27.104Z,525.00
2023-04-25T06:38:27.274Z,538.00
2023-04-25T06:39:27.066Z,555.00
2023-04-25T06:40:27.109Z,542.00
2023-04-25T06:41:27.126Z,555.00
2023-04-25T06:42:27.086Z,566.00
2023-04-25T06:43:27.115Z,553.00
2023-04-25T06:44:27.178Z,546.00
2023-04-25T06:45:27.120Z,555.00
2023-04-25T06:46:27.142Z,541.00
2023-04-25T06:47:27.210Z,540.00
2023-04-25T06:48:27.283Z,585.00
2023-04-25T06:49:27.188Z,546.00
2023-04-25T06:50:27.262Z,577.00
2023-04-25T06:51:27.263Z,558.00
2023-04-25T06:52:27.301Z,553.00
2023-04-25T06:53:27.306Z,557.00
2023-04-25T06:54:27.318Z,521.00
2023-04-25T06:55:27.282Z,569.00
2023-04-25T06:56:27.310Z,570.00
2023-04-25T06:57:27.346Z,563.00
2023-04-25T06:58:28.299Z,544.00
2023-04-25T06:59:27.342Z,571.00
2023-04-25T07:00:27.492Z,604.00
2023-04-25T07:01:27.552Z,685.00
2023-04-25T07:02:27.653Z,698.00
2023-04-25T07:03:27.916Z,784.00
2023-04-25T07:04:27.839Z,827.00
2023-04-25T07:05:27.714Z,705.00
2023-04-25T07:06:27.757Z,733.00
2023-04-25T07:07:27.776Z,826.00
2023-04-25T07:08:28.341Z,720.00
2023-04-25T07:09:27.857Z,786.00
2023-04-25T07:10:27.933Z,752.00
2023-04-25T07:11:27.907Z,698.00
2023-04-25T07:12:27.957Z,792.00
2023-04-25T07:13:28.300Z,819.00
2023-04-25T07:14:28.010Z,812.00
2023-04-25T07:15:28.002Z,811.00
2023-04-25T07:16:28.086Z,727.00
2023-04-25T07:17:28.062Z,741.00
2023-04-25T07:18:28.314Z,724.00
2023-04-25T07:19:28.070Z,678.00
2023-04-25T07:20:28.073Z,757.00
2023-04-25T07:21:28.062Z,657.00
2023-04-25T07:22:28.064Z,660.00
2023-04-25T07:23:28.305Z,784.00
2023-04-25T07:24:28.077Z,857.00
2023-04-25T07:25:28.099Z,796.00
2023-04-25T07:26:28.019Z,831.00
2023-04-25T07:27:28.017Z,874.00
2023-04-25T07:28:28.326Z,866.00
2023-04-25T07:29:28.077Z,879.00
2023-04-25T07:30:28.070Z,919.00
2023-04-25T07:31:28.138Z,922.00
2023-04-25T07:32:28.134Z,687.00
2023-04-25T07:33:28.279Z,770.00
2023-04-25T07:34:28.168Z,717.00
2023-04-25T07:35:28.215Z,779.00
2023-04-25T07:36:28.266Z,635.00
2023-04-25T07:37:28.309Z,669.00
2023-04-25T07:38:28.381Z,671.00
2023-04-25T07:39:28.485Z,815.00
2023-04-25T07:40:28.498Z,827.00
2023-04-25T07:41:28.568Z,858.00
2023-04-25T07:42:28.632Z,813.00
2023-04-25T07:43:28.802Z,925.00
2023-04-25T07:44:28.760Z,761.00
2023-04-25T07:45:28.830Z,646.00
2023-04-25T07:46:28.886Z,685.00
2023-04-25T07:47:28.988Z,689.00
2023-04-25T07:48:29.318Z,727.00
2023-04-25T07:49:29.134Z,708.00
2023-04-25T07:50:29.103Z,819.00
2023-04-25T07:51:29.206Z,763.00
2023-04-25T07:52:29.271Z,898.00
2023-04-25T07:53:29.344Z,773.00
2023-04-25T07:54:29.349Z,666.00
2023-04-25T07:55:29.442Z,787.00
2023-04-25T07:56:38.543Z,854.00
2023-04-25T07:57:30.457Z,856.00
2023-04-25T07:58:29.881Z,864.00
2023-04-25T07:59:30.441Z,858.00
2023-04-25T08:00:29.489Z,863.00
2023-04-25T08:01:29.426Z,871.00
2023-04-25T08:02:29.622Z,817.00
2023-04-25T08:03:30.021Z,810.00
2023-04-25T08:04:29.510Z,833.00
2023-04-25T08:05:29.509Z,924.00
2023-04-25T08:06:29.636Z,827.00
2023-04-25T08:07:29.533Z,838.00
2023-04-25T08:08:29.807Z,934.00
2023-04-25T08:09:29.665Z,857.00
2023-04-25T08:10:29.700Z,840.00
2023-04-25T08:11:29.796Z,912.00
2023-04-25T08:12:29.812Z,896.00
2023-04-25T08:13:30.382Z,849.00
2023-04-25T08:14:29.932Z,797.00
2023-04-25T08:15:30.011Z,822.00
2023-04-25T08:16:30.027Z,793.00
2023-04-25T08:17:30.008Z,798.00
2023-04-25T08:18:30.334Z,810.00
2023-04-25T08:19:30.174Z,815.00
2023-04-25T08:20:30.175Z,826.00
2023-04-25T08:21:30.269Z,814.00
2023-04-25T08:22:30.268Z,685.00
2023-04-25T08:23:30.349Z,790.00
2023-04-25T08:24:30.378Z,804.00
2023-04-25T08:25:30.363Z,816.00
2023-04-25T08:26:30.427Z,858.00
2023-04-25T08:27:30.481Z,797.00
2023-04-25T08:28:30.902Z,801.00
2023-04-25T08:29:30.562Z,844.00
2023-04-25T08:30:30.603Z,798.00
2023-04-25T08:31:30.647Z,793.00
2023-04-25T08:32:31.079Z,785.00
2023-04-25T08:33:30.842Z,789.00
2023-04-25T08:34:30.677Z,790.00
2023-04-25T08:35:30.712Z,806.00
2023-04-25T08:36:39.308Z,766.00
2023-04-25T08:37:31.779Z,767.00
2023-04-25T08:38:30.855Z,768.00
2023-04-25T08:39:30.724Z,779.00
2023-04-25T08:40:30.726Z,746.00
2023-04-25T08:41:30.709Z,623.00
2023-04-25T08:42:30.738Z,684.00
2023-04-25T08:43:30.852Z,726.00
2023-04-25T08:44:30.777Z,708.00
2023-04-25T08:45:30.730Z,671.00
2023-04-25T08:46:30.719Z,687.00
2023-04-25T08:47:30.731Z,754.00
2023-04-25T08:48:30.844Z,901.00
2023-04-25T08:49:30.662Z,791.00
2023-04-25T08:50:30.689Z,857.00
2023-04-25T08:51:30.630Z,829.00
2023-04-25T08:52:30.683Z,753.00
2023-04-25T08:53:31.117Z,657.00
2023-04-25T08:54:35.562Z,746.00
2023-04-25T08:55:31.644Z,718.00
2023-04-25T08:56:31.158Z,755.00
2023-04-25T08:57:30.651Z,668.00
2023-04-25T08:58:30.941Z,664.00
2023-04-25T08:59:30.658Z,778.00
2023-04-25T09:00:30.657Z,703.00
2023-04-25T09:01:30.664Z,829.00
2023-04-25T09:02:30.709Z,826.00
2023-04-25T09:03:30.982Z,959.00
2023-04-25T09:04:30.859Z,916.00
2023-04-25T09:05:30.594Z,854.00
2023-04-25T09:06:30.595Z,968.00
2023-04-25T09:07:30.597Z,756.00
2023-04-25T09:08:30.565Z,863.00
2023-04-25T09:09:30.581Z,870.00
2023-04-25T09:11:30.819Z,783.00
2023-04-25T09:12:30.551Z,853.00
2023-04-25T09:13:30.545Z,921.00
2023-04-25T09:14:30.872Z,913.00
2023-04-25T09:15:30.532Z,945.00
2023-04-25T09:16:30.535Z,838.00
2023-04-25T09:17:30.565Z,792.00
2023-04-25T09:18:30.974Z,731.00
2023-04-25T09:20:31.597Z,908.00
2023-04-25T09:21:30.510Z,895.00
2023-04-25T09:22:30.510Z,812.00
2023-04-25T09:23:30.526Z,838.00
2023-04-25T09:24:30.875Z,922.00
2023-04-25T09:25:30.470Z,956.00
2023-04-25T09:26:30.478Z,891.00
2023-04-25T09:27:30.473Z,877.00
2023-04-25T09:28:31.096Z,846.00
2023-04-25T09:29:30.453Z,901.00
2023-04-25T09:30:30.432Z,838.00
2023-04-25T09:31:30.472Z,832.00
2023-04-25T09:32:30.586Z,909.00
2023-04-25T09:33:30.411Z,874.00
2023-04-25T09:34:30.417Z,924.00
2023-04-25T09:35:30.401Z,805.00
2023-04-25T09:36:31.317Z,806.00
2023-04-25T09:37:30.403Z,831.00
2023-04-25T09:38:30.366Z,815.00
2023-04-25T09:39:30.837Z,838.00
2023-04-25T09:40:30.378Z,802.00
2023-04-25T09:41:30.381Z,783.00
2023-04-25T09:42:30.341Z,893.00
2023-04-25T09:43:30.346Z,805.00
2023-04-25T09:44:30.409Z,846.00
2023-04-25T09:45:30.358Z,673.00
2023-04-25T09:46:30.455Z,620.00
2023-04-25T09:47:30.367Z,617.00
2023-04-25T09:48:30.346Z,649.00
2023-04-25T09:49:30.311Z,729.00
2023-04-25T09:50:30.401Z,782.00
2023-04-25T09:51:30.421Z,781.00
2023-04-25T09:52:30.309Z,771.00
2023-04-25T09:53:30.312Z,784.00
2023-04-25T09:54:30.367Z,760.00
2023-04-25T09:55:30.296Z,749.00
2023-04-25T09:56:30.282Z,748.00
2023-04-25T09:57:30.323Z,740.00
2023-04-25T09:58:32.074Z,729.00
2023-04-25T09:59:30.352Z,727.00
2023-04-25T10:00:30.269Z,720.00
2023-04-25T10:01:30.319Z,713.00
2023-04-25T10:02:30.325Z,687.00
2023-04-25T10:03:30.416Z,681.00
2023-04-25T10:04:32.181Z,661.00
2023-04-25T10:05:30.252Z,659.00
2023-04-25T10:06:30.197Z,657.00
2023-04-25T10:07:30.256Z,648.00
2023-04-25T10:08:30.226Z,643.00
2023-04-25T10:09:30.381Z,625.00
2023-04-25T10:10:32.058Z,612.00
2023-04-25T10:11:30.177Z,621.00
2023-04-25T10:12:30.141Z,625.00
2023-04-25T10:13:30.211Z,614.00
2023-04-25T10:14:30.151Z,601.00
2023-04-25T10:15:30.188Z,610.00
2023-04-25T10:16:30.158Z,606.00
2023-04-25T10:17:30.359Z,599.00
2023-04-25T10:18:30.253Z,605.00
2023-04-25T10:19:30.299Z,599.00
2023-04-25T10:20:30.365Z,592.00
2023-04-25T10:21:30.479Z,611.00
2023-04-25T10:22:30.372Z,592.00
2023-04-25T10:23:30.362Z,581.00
2023-04-25T10:24:30.374Z,603.00
2023-04-25T10:25:30.381Z,589.00
2023-04-25T10:26:31.299Z,621.00
2023-04-25T10:27:30.398Z,607.00
2023-04-25T10:28:30.416Z,638.00
2023-04-25T10:29:30.386Z,627.00
2023-04-25T10:30:30.400Z,651.00
2023-04-25T10:31:30.484Z,615.00
2023-04-25T10:32:31.260Z,632.00
2023-04-25T10:33:30.356Z,613.00
2023-04-25T10:34:30.879Z,608.00
2023-04-25T10:35:30.387Z,612.00
2023-04-25T10:36:30.390Z,631.00
2023-04-25T10:37:30.361Z,631.00
2023-04-25T10:38:30.405Z,635.00
2023-04-25T10:39:30.912Z,601.00
2023-04-25T10:40:30.392Z,620.00
2023-04-25T10:41:30.397Z,590.00
2023-04-25T10:42:30.511Z,622.00
2023-04-25T10:43:30.461Z,633.00
2023-04-25T10:44:30.898Z,620.00
2023-04-25T10:45:30.515Z,644.00
2023-04-25T10:46:30.569Z,624.00
2023-04-25T10:47:30.543Z,646.00
2023-04-25T10:48:30.492Z,628.00
2023-04-25T10:49:30.886Z,619.00
2023-04-25T10:50:30.590Z,629.00
2023-04-25T10:51:34.596Z,606.00
2023-04-25T10:52:31.597Z,600.00
2023-04-25T10:53:30.584Z,609.00
2023-04-25T10:54:30.846Z,627.00
2023-04-25T10:55:30.715Z,640.00
2023-04-25T10:56:30.549Z,684.00
2023-04-25T10:57:30.569Z,737.00
2023-04-25T10:58:30.547Z,692.00
2023-04-25T10:59:30.882Z,657.00
2023-04-25T11:00:42.911Z,649.00
2023-04-25T11:01:31.557Z,625.00
2023-04-25T11:02:30.626Z,647.00
2023-04-25T11:03:30.683Z,622.00
2023-04-25T11:04:31.166Z,654.00
2023-04-25T11:05:30.524Z,650.00
2023-04-25T11:06:30.506Z,629.00
2023-04-25T11:07:30.613Z,602.00
2023-04-25T11:08:30.467Z,614.00
2023-04-25T11:09:30.889Z,619.00
2023-04-25T11:10:30.446Z,617.00
2023-04-25T11:11:30.517Z,621.00
2023-04-25T11:12:30.467Z,614.00
2023-04-25T11:13:30.427Z,601.00
2023-04-25T11:14:30.948Z,607.00
2023-04-25T11:15:30.434Z,613.00
2023-04-25T11:16:30.474Z,626.00
2023-04-25T11:17:30.504Z,613.00
2023-04-25T11:18:30.482Z,623.00
2023-04-25T11:19:30.883Z,613.00
2023-04-25T11:20:30.389Z,623.00
2023-04-25T11:21:30.443Z,613.00
2023-04-25T11:22:30.380Z,610.00
2023-04-25T11:23:30.390Z,618.00
2023-04-25T11:24:30.955Z,604.00
2023-04-25T11:25:30.424Z,609.00
2023-04-25T11:26:30.484Z,620.00
2023-04-25T11:27:30.591Z,613.00
2023-04-25T11:28:30.555Z,628.00
2023-04-25T11:29:30.941Z,611.00
2023-04-25T11:30:30.653Z,584.00
2023-04-25T11:31:30.691Z,639.00
2023-04-25T11:32:30.803Z,704.00
2023-04-25T11:33:30.787Z,718.00
2023-04-25T11:34:30.874Z,666.00
2023-04-25T11:35:30.891Z,706.00
2023-04-25T11:36:30.877Z,742.00
2023-04-25T11:37:30.922Z,698.00
2023-04-25T11:38:30.901Z,664.00
2023-04-25T11:39:31.411Z,677.00
2023-04-25T11:40:30.914Z,688.00
2023-04-25T11:41:30.922Z,671.00
2023-04-25T11:42:30.920Z,662.00
2023-04-25T11:43:31.012Z,664.00
2023-04-25T11:44:31.433Z,659.00
2023-04-25T11:45:30.928Z,700.00
2023-04-25T11:46:30.975Z,663.00
2023-04-25T11:47:30.938Z,669.00
2023-04-25T11:48:30.927Z,653.00
2023-04-25T11:49:32.233Z,648.00
2023-04-25T11:50:30.892Z,684.00
2023-04-25T11:51:30.944Z,695.00
2023-04-25T11:52:30.913Z,639.00
2023-04-25T11:53:30.905Z,637.00
2023-04-25T11:54:31.001Z,638.00
2023-04-25T11:55:30.994Z,638.00
2023-04-25T11:56:30.952Z,631.00
2023-04-25T11:57:31.008Z,634.00
2023-04-25T11:58:30.939Z,637.00
2023-04-25T11:59:30.979Z,634.00
2023-04-25T12:00:30.957Z,636.00
2023-04-25T12:01:31.972Z,638.00
2023-04-25T12:02:31.114Z,638.00
2023-04-25T12:03:31.165Z,638.00
2023-04-25T12:04:31.093Z,637.00
2023-04-25T12:05:33.813Z,637.00
2023-04-25T12:06:31.017Z,638.00
2023-04-25T12:07:31.153Z,639.00
2023-04-25T12:08:31.087Z,641.00
2023-04-25T12:09:31.111Z,643.00
2023-04-25T12:10:30.931Z,646.00
2023-04-25T12:11:30.906Z,648.00
2023-04-25T12:12:30.917Z,644.00
2023-04-25T12:13:30.919Z,649.00
2023-04-25T12:14:30.938Z,652.00
2023-04-25T12:15:30.942Z,653.00
2023-04-25T12:16:30.938Z,649.00
2023-04-25T12:17:31.020Z,634.00
2023-04-25T12:18:30.885Z,629.00
2023-04-25T12:19:30.853Z,614.00
2023-04-25T12:20:31.010Z,627.00
2023-04-25T12:21:30.874Z,632.00
2023-04-25T12:22:30.864Z,635.00
2023-04-25T12:23:30.881Z,641.00
2023-04-25T12:24:30.865Z,640.00
2023-04-25T12:25:30.906Z,641.00
2023-04-25T12:26:30.838Z,654.00
2023-04-25T12:27:30.814Z,655.00
2023-04-25T12:28:30.823Z,656.00
2023-04-25T12:29:38.265Z,654.00
2023-04-25T12:30:31.802Z,654.00